Time;durP1;ratioP1;P1;durP2;ratioP2;P2;SDS_P1;SDS_P2;PMS_P1;PMS_P2;Temp;Humidity;BMP_temperature;BMP_pressure;BME280_temperature;BME280_humidity;BME280_pressure;Samples;Min_cycle;Max_cycle;Signal;HPM_P1;HPM_P2
2022/06/28 03:01:09;;;;;;;1.13;0.80;;;26.50;47.70;;;;;;5611289;23;45259;-62
2022/06/28 03:03:34;;;;;;;1.15;0.90;;;26.50;47.70;;;;;;5046106;23;45004;-85
2022/06/28 03:06:00;;;;;;;1.35;0.93;;;26.50;47.80;;;;;;4918744;28;45304;-87
2022/06/28 03:08:26;;;;;;;1.10;1.00;;;26.50;47.80;;;;;;4895293;28;46518;-84
2022/06/28 03:10:51;;;;;;;2.35;1.20;;;26.40;47.80;;;;;;4885299;28;45001;-84
2022/06/28 03:13:17;;;;;;;2.53;1.33;;;26.40;48.00;;;;;;4870548;28;44846;-84
2022/06/28 03:15:43;;;;;;;4.13;0.90;;;26.40;48.10;;;;;;4869015;28;45251;-83
2022/06/28 03:18:08;;;;;;;3.75;0.95;;;26.40;48.10;;;;;;4885738;28;46667;-84
2022/06/28 03:20:34;;;;;;;1.10;1.00;;;26.40;48.10;;;;;;4918683;28;44933;-84
2022/06/28 03:23:00;;;;;;;1.98;0.82;;;26.30;48.00;;;;;;4900078;28;45476;-84
2022/06/28 03:25:25;;;;;;;1.23;0.70;;;26.30;48.10;;;;;;4891387;28;45237;-85
2022/06/28 03:27:51;;;;;;;2.03;1.00;;;26.30;48.30;;;;;;4901442;28;47465;-83
2022/06/28 03:30:17;;;;;;;1.17;0.95;;;26.20;48.30;;;;;;4867545;28;45652;-84
2022/06/28 03:32:43;;;;;;;1.90;0.98;;;26.20;48.30;;;;;;4898596;28;45462;-83
2022/06/28 03:35:08;;;;;;;1.65;1.00;;;26.20;48.30;;;;;;4891270;28;45532;-89
2022/06/28 03:37:35;;;;;;;1.27;1.08;;;26.20;48.40;;;;;;4897587;28;46572;-83
2022/06/28 03:40:01;;;;;;;2.25;0.90;;;26.10;48.50;;;;;;4897177;28;45261;-87
2022/06/28 03:42:27;;;;;;;0.80;0.80;;;26.10;48.60;;;;;;4898909;28;45193;-87
2022/06/28 03:44:52;;;;;;;1.60;0.95;;;26.10;48.70;;;;;;4900042;28;45285;-83
2022/06/28 03:47:18;;;;;;;1.08;0.95;;;26.00;48.80;;;;;;4899014;28;46950;-84
2022/06/28 03:49:43;;;;;;;1.00;0.90;;;26.00;48.80;;;;;;4899870;28;45315;-84
2022/06/28 03:52:09;;;;;;;3.20;0.90;;;26.00;48.80;;;;;;4915167;28;45174;-85
2022/06/28 03:54:35;;;;;;;3.10;1.08;;;26.10;48.70;;;;;;4917726;28;44820;-85
2022/06/28 03:57:00;;;;;;;2.67;1.10;;;26.10;48.70;;;;;;4912965;28;46850;-84
2022/06/28 03:59:26;;;;;;;1.60;0.98;;;26.10;48.70;;;;;;4894969;28;45942;-86
2022/06/28 04:01:52;;;;;;;1.45;1.17;;;26.10;48.70;;;;;;4899103;28;45258;-83
2022/06/28 04:04:18;;;;;;;3.22;1.02;;;26.00;48.70;;;;;;4894145;28;45228;-84
2022/06/28 04:06:45;;;;;;;2.90;0.93;;;26.00;48.70;;;;;;4916581;28;47518;-85
2022/06/28 04:09:11;;;;;;;2.72;1.40;;;26.00;48.60;;;;;;4899617;28;44885;-84
2022/06/28 04:11:37;;;;;;;1.05;0.85;;;26.10;48.60;;;;;;4906675;28;45293;-85
2022/06/28 04:14:02;;;;;;;3.42;1.17;;;26.00;48.60;;;;;;4910803;28;45191;-84
2022/06/28 04:16:28;;;;;;;1.10;0.93;;;26.00;48.70;;;;;;4913473;28;45391;-85
2022/06/28 04:18:54;;;;;;;2.25;0.98;;;26.00;48.60;;;;;;4897050;28;44717;-84
2022/06/28 04:21:20;;;;;;;1.20;1.10;;;26.10;48.70;;;;;;4917629;28;45282;-85
2022/06/28 04:23:45;;;;;;;2.75;0.95;;;26.00;48.70;;;;;;4887656;28;45170;-84
2022/06/28 04:26:11;;;;;;;2.45;0.95;;;26.00;48.70;;;;;;4897825;28;47325;-85
2022/06/28 04:28:37;;;;;;;3.05;0.85;;;26.00;48.70;;;;;;4910889;28;45615;-86
2022/06/28 04:31:02;;;;;;;1.58;0.90;;;26.00;48.70;;;;;;4895962;28;45215;-85
2022/06/28 04:33:28;;;;;;;1.30;0.95;;;26.00;48.70;;;;;;4927452;28;44748;-85
2022/06/28 04:35:55;;;;;;;0.95;0.95;;;25.90;48.80;;;;;;4915497;28;47590;-84
2022/06/28 04:38:20;;;;;;;1.00;0.95;;;26.00;48.70;;;;;;4893324;28;45533;-85
2022/06/28 04:40:46;;;;;;;1.95;1.00;;;26.00;48.70;;;;;;4911316;28;44648;-86
2022/06/28 04:43:12;;;;;;;1.00;0.88;;;26.00;48.70;;;;;;4917241;28;45984;-86
2022/06/28 04:45:38;;;;;;;1.20;0.82;;;25.90;48.70;;;;;;4919918;28;47224;-86
2022/06/28 04:48:06;;;;;;;2.22;1.30;;;25.90;48.80;;;;;;4901810;28;44695;-88
2022/06/28 04:50:54;;;;;;;1.55;1.10;;;25.90;48.80;;;;;;4897296;28;45376;-87
2022/06/28 04:53:20;;;;;;;1.73;1.00;;;25.90;48.80;;;;;;4899102;28;45000;-88
2022/06/28 04:55:46;;;;;;;2.53;1.17;;;25.90;48.80;;;;;;4932993;28;45853;-90
2022/06/28 04:58:11;;;;;;;1.08;0.93;;;25.90;48.80;;;;;;4917523;28;44785;-89
2022/06/28 05:00:37;;;;;;;2.80;0.93;;;25.90;48.80;;;;;;4900465;28;44646;-89
2022/06/28 05:03:02;;;;;;;2.85;1.38;;;25.80;48.90;;;;;;4899252;28;45440;-88
2022/06/28 05:05:28;;;;;;;2.00;1.40;;;25.80;48.90;;;;;;4900854;28;46867;-88
2022/06/28 05:07:54;;;;;;;1.88;0.98;;;25.80;49.00;;;;;;4916230;28;45506;-89
2022/06/28 05:10:19;;;;;;;3.28;1.27;;;25.70;49.00;;;;;;4900025;28;45070;-89
2022/06/28 05:12:45;;;;;;;3.75;1.52;;;25.70;49.10;;;;;;4900289;28;45281;-90
2022/06/28 05:15:11;;;;;;;2.15;1.00;;;25.70;49.00;;;;;;4899407;28;47051;-89
2022/06/28 05:17:36;;;;;;;1.80;1.27;;;25.70;49.00;;;;;;4899288;28;44748;-88
2022/06/28 05:20:02;;;;;;;1.58;1.27;;;25.70;49.00;;;;;;4915290;28;45149;-89
2022/06/28 05:22:28;;;;;;;3.22;1.20;;;25.70;48.90;;;;;;4899533;28;45447;-90
2022/06/28 05:24:54;;;;;;;2.40;1.20;;;25.60;49.00;;;;;;4915117;28;45264;-89
2022/06/28 05:27:20;;;;;;;2.60;1.38;;;25.60;49.10;;;;;;4899295;28;44611;-89
2022/06/28 05:29:46;;;;;;;1.63;1.20;;;25.70;49.00;;;;;;4898824;28;45392;-86
2022/06/28 05:32:12;;;;;;;2.28;1.10;;;25.70;48.90;;;;;;4912280;28;45523;-85
2022/06/28 05:34:38;;;;;;;2.08;0.90;;;25.70;48.90;;;;;;4913593;28;45541;-85
2022/06/28 05:37:04;;;;;;;2.33;1.30;;;25.70;48.80;;;;;;4896086;28;45788;-85
2022/06/28 05:39:30;;;;;;;2.60;1.05;;;25.70;48.70;;;;;;4915218;28;45019;-85
2022/06/28 05:41:55;;;;;;;2.35;1.17;;;25.80;48.60;;;;;;4896404;28;45291;-85
2022/06/28 05:44:21;;;;;;;2.63;1.35;;;25.80;48.50;;;;;;4893933;28;47328;-86
2022/06/28 05:46:46;;;;;;;4.00;2.20;;;25.80;48.40;;;;;;4896585;28;45098;-84
2022/06/28 05:49:12;;;;;;;4.57;2.95;;;25.80;48.40;;;;;;4896187;28;44977;-84
2022/06/28 05:51:38;;;;;;;5.78;3.10;;;25.80;48.40;;;;;;4907572;28;45655;-85
2022/06/28 05:54:03;;;;;;;5.55;3.60;;;25.80;48.40;;;;;;4898862;28;45235;-85
2022/06/28 05:56:29;;;;;;;5.82;3.47;;;25.80;48.40;;;;;;4918918;28;44856;-85
2022/06/28 05:58:55;;;;;;;5.03;3.25;;;25.80;48.40;;;;;;4907069;28;45380;-85
2022/06/28 06:01:22;;;;;;;5.72;3.45;;;25.80;48.40;;;;;;4906334;28;45042;-85
2022/06/28 06:03:48;;;;;;;5.10;2.60;;;25.80;48.40;;;;;;4890260;28;46558;-85
2022/06/28 06:06:14;;;;;;;3.92;2.13;;;25.80;48.30;;;;;;4874151;28;45282;-85
2022/06/28 06:08:40;;;;;;;3.40;2.17;;;25.80;48.30;;;;;;4898609;28;45079;-85
2022/06/28 06:11:07;;;;;;;3.70;2.08;;;25.80;48.20;;;;;;4893186;28;45266;-84
2022/06/28 06:13:34;;;;;;;5.45;2.72;;;25.80;48.20;;;;;;4909319;28;45359;-84
2022/06/28 06:15:59;;;;;;;6.35;2.72;;;25.80;48.10;;;;;;4888380;28;44851;-84
2022/06/28 06:18:25;;;;;;;5.35;2.65;;;25.80;48.10;;;;;;4925196;28;45232;-84
2022/06/28 06:20:51;;;;;;;2.72;1.92;;;25.80;48.30;;;;;;4909389;28;45163;-84
2022/06/28 06:23:16;;;;;;;3.42;2.10;;;25.80;48.30;;;;;;4905749;28;45496;-84
2022/06/28 06:25:42;;;;;;;2.50;2.00;;;25.80;48.30;;;;;;4905711;28;45736;-84
2022/06/28 06:28:08;;;;;;;4.57;2.25;;;25.70;48.30;;;;;;4896777;28;45487;-84
2022/06/28 06:30:33;;;;;;;3.85;1.80;;;25.70;48.20;;;;;;4915628;28;45184;-84
2022/06/28 06:32:59;;;;;;;4.25;1.63;;;25.70;48.30;;;;;;4897920;28;46868;-84
2022/06/28 06:35:25;;;;;;;2.95;1.35;;;25.70;48.30;;;;;;4893515;28;45196;-83
2022/06/28 06:37:53;;;;;;;2.70;1.63;;;25.70;48.20;;;;;;4896061;28;45234;-84
2022/06/28 06:40:19;;;;;;;2.30;1.45;;;25.70;48.10;;;;;;4903761;28;45141;-84
2022/06/28 06:42:45;;;;;;;3.17;1.40;;;25.70;48.10;;;;;;4904719;28;46982;-84
2022/06/28 06:45:11;;;;;;;4.20;1.70;;;25.70;48.00;;;;;;4904572;28;45618;-84
2022/06/28 06:47:37;;;;;;;4.38;1.40;;;25.70;48.00;;;;;;4876250;28;44686;-85
2022/06/28 06:50:08;;;;;;;1.90;1.30;;;25.70;48.00;;;;;;4895434;28;44763;-84
2022/06/28 06:52:34;;;;;;;2.25;1.40;;;25.70;47.90;;;;;;4896958;28;46964;-85
2022/06/28 06:55:00;;;;;;;1.73;1.50;;;25.80;47.90;;;;;;4894093;28;45096;-84
2022/06/28 06:57:25;;;;;;;1.70;1.25;;;25.80;47.90;;;;;;4896064;28;44745;-84
2022/06/28 06:59:51;;;;;;;2.35;1.05;;;25.80;47.90;;;;;;4914515;28;44675;-82
2022/06/28 07:02:16;;;;;;;1.50;1.20;;;25.80;47.90;;;;;;4891240;28;46701;-81
2022/06/28 07:04:42;;;;;;;2.83;1.60;;;25.80;47.70;;;;;;4894580;28;45025;-83
2022/06/28 07:07:08;;;;;;;4.57;1.45;;;25.80;47.50;;;;;;4891496;28;45117;-83
2022/06/28 07:09:34;;;;;;;2.28;1.35;;;25.80;47.40;;;;;;4909515;28;45167;-83
2022/06/28 07:11:59;;;;;;;1.90;1.38;;;25.70;47.70;;;;;;4893773;28;46596;-84
2022/06/28 07:14:25;;;;;;;4.35;1.55;;;25.70;47.30;;;;;;4908963;28;45648;-84
2022/06/28 07:16:50;;;;;;;1.92;1.20;;;25.70;47.20;;;;;;4891205;28;45307;-82
2022/06/28 07:19:16;;;;;;;2.13;1.17;;;25.70;47.20;;;;;;4906992;28;44775;-83
2022/06/28 07:21:44;;;;;;;5.50;1.48;;;25.70;47.20;;;;;;4889783;28;46893;-83
2022/06/28 07:24:10;;;;;;;2.88;1.70;;;25.80;47.30;;;;;;4897167;28;45213;-83
2022/06/28 07:26:35;;;;;;;3.03;1.83;;;25.80;47.20;;;;;;4939875;28;44782;-84
2022/06/28 07:29:02;;;;;;;3.78;2.03;;;25.80;47.00;;;;;;4907193;28;45415;-83
2022/06/28 07:31:30;;;;;;;4.13;1.95;;;25.80;46.90;;;;;;4908068;28;46770;-84
2022/06/28 07:33:56;;;;;;;3.47;2.00;;;25.80;46.90;;;;;;4907832;28;45196;-84
2022/06/28 07:36:22;;;;;;;4.95;1.83;;;25.80;46.70;;;;;;4908114;28;45265;-84
2022/06/28 07:38:48;;;;;;;3.03;1.70;;;25.80;46.70;;;;;;4890377;28;45449;-84
2022/06/28 07:41:14;;;;;;;2.70;1.50;;;25.80;46.50;;;;;;4894779;28;47029;-83
2022/06/28 07:43:39;;;;;;;4.75;1.50;;;25.90;46.40;;;;;;4907349;28;45746;-85
2022/06/28 07:46:05;;;;;;;3.50;1.50;;;25.80;46.30;;;;;;4895741;28;44984;-84
2022/06/28 07:48:31;;;;;;;3.03;1.40;;;25.90;46.30;;;;;;4909571;28;45481;-85
2022/06/28 07:53:40;;;;;;;2.75;1.13;;;25.90;45.70;;;;;;4927654;28;45236;-84
2022/06/28 07:56:06;;;;;;;1.05;0.80;;;25.90;45.90;;;;;;4891748;28;45093;-85
2022/06/28 07:58:32;;;;;;;1.40;1.00;;;25.90;45.20;;;;;;4893429;28;44866;-85
2022/06/28 08:00:59;;;;;;;2.38;1.13;;;26.00;45.10;;;;;;4912235;28;46823;-84
2022/06/28 08:03:24;;;;;;;2.33;0.80;;;26.00;45.10;;;;;;4896432;28;45293;-83
2022/06/28 08:05:50;;;;;;;1.08;0.95;;;26.00;45.00;;;;;;4909092;28;45275;-83
2022/06/28 08:08:16;;;;;;;1.00;0.90;;;26.00;45.00;;;;;;4892694;28;45250;-84
2022/06/28 08:10:42;;;;;;;3.10;1.05;;;26.00;44.70;;;;;;4892495;28;46990;-83
2022/06/28 08:13:08;;;;;;;1.58;0.80;;;26.10;44.60;;;;;;4923980;28;45205;-83
2022/06/28 08:15:33;;;;;;;1.30;0.82;;;26.10;44.60;;;;;;4897419;28;45075;-84
2022/06/28 08:17:59;;;;;;;1.85;0.80;;;26.10;44.60;;;;;;4909413;28;44783;-83
2022/06/28 08:20:25;;;;;;;0.57;0.55;;;26.10;44.50;;;;;;4889987;28;46019;-84
2022/06/28 08:22:51;;;;;;;2.65;0.90;;;26.20;44.40;;;;;;4893296;28;45208;-84
2022/06/28 08:25:17;;;;;;;1.48;0.70;;;26.20;44.40;;;;;;4924318;28;45199;-84
2022/06/28 08:27:42;;;;;;;1.85;0.82;;;26.20;44.30;;;;;;4905009;28;45200;-84
2022/06/28 08:30:08;;;;;;;2.85;0.98;;;26.20;44.30;;;;;;4895603;28;46938;-84
2022/06/28 08:32:34;;;;;;;2.78;0.70;;;26.30;44.40;;;;;;4913849;28;45228;-84
2022/06/28 08:34:59;;;;;;;0.98;0.65;;;26.30;44.30;;;;;;4890476;28;45024;-83
2022/06/28 08:37:25;;;;;;;2.00;0.65;;;26.30;44.00;;;;;;4891369;28;45120;-84
2022/06/28 08:39:51;;;;;;;1.75;0.80;;;26.40;43.70;;;;;;4889923;28;47073;-84
2022/06/28 08:42:24;;;;;;;0.77;0.60;;;26.40;43.60;;;;;;4898508;28;45373;-84
2022/06/28 08:44:50;;;;;;;2.67;0.75;;;26.40;43.50;;;;;;4892528;28;45248;-83
2022/06/28 08:47:15;;;;;;;0.90;0.63;;;26.40;43.30;;;;;;4905807;28;45208;-84
2022/06/28 08:49:55;;;;;;;3.13;0.77;;;26.50;43.30;;;;;;4907151;28;47058;-84
2022/06/28 08:52:21;;;;;;;5.40;1.00;;;26.50;42.70;;;;;;4905851;28;45127;-85
2022/06/28 08:54:47;;;;;;;1.30;1.00;;;26.50;42.80;;;;;;4898300;28;45460;-83
2022/06/28 08:57:12;;;;;;;1.88;0.90;;;26.50;42.80;;;;;;4907725;28;45248;-84
2022/06/28 08:59:38;;;;;;;1.60;0.93;;;26.60;42.80;;;;;;4892871;28;46574;-84
2022/06/28 09:02:05;;;;;;;1.63;0.90;;;26.70;42.70;;;;;;4908332;28;44721;-83
2022/06/28 09:04:31;;;;;;;2.50;1.02;;;26.70;42.70;;;;;;4890946;28;45330;-84
2022/06/28 09:06:57;;;;;;;3.35;1.20;;;26.70;42.50;;;;;;4905936;28;45242;-84
2022/06/28 09:09:23;;;;;;;3.25;1.10;;;26.70;42.40;;;;;;4897041;28;47197;-83
2022/06/28 09:11:49;;;;;;;1.15;0.80;;;26.70;42.20;;;;;;4891293;28;45636;-84
2022/06/28 09:14:25;;;;;;;1.05;0.77;;;26.70;42.10;;;;;;4894248;28;45158;-84
2022/06/28 09:16:51;;;;;;;1.17;1.00;;;26.80;41.90;;;;;;4894199;28;45012;-83
2022/06/28 09:19:17;;;;;;;1.20;0.75;;;26.80;41.80;;;;;;4877697;28;47147;-85
2022/06/28 09:21:43;;;;;;;0.85;0.73;;;26.90;41.90;;;;;;4908294;28;45325;-83
2022/06/28 09:24:09;;;;;;;1.25;0.90;;;27.00;41.60;;;;;;4877559;28;45062;-84
2022/06/28 09:26:34;;;;;;;2.05;0.90;;;27.00;41.20;;;;;;4880720;28;45741;-84
2022/06/28 09:29:00;;;;;;;3.25;0.80;;;27.00;41.20;;;;;;4893603;28;46999;-84
2022/06/28 09:31:27;;;;;;;0.63;0.55;;;27.00;41.10;;;;;;4895592;28;45439;-83
2022/06/28 09:33:59;;;;;;;2.85;1.00;;;27.00;40.80;;;;;;4913370;28;45394;-84
2022/06/28 09:36:25;;;;;;;2.85;0.80;;;27.10;40.50;;;;;;4907880;28;45542;-84
2022/06/28 09:38:52;;;;;;;2.47;0.95;;;27.10;40.70;;;;;;4895475;28;47354;-84
2022/06/28 09:41:28;;;;;;;1.50;0.80;;;27.10;40.60;;;;;;4893653;28;44839;-84
2022/06/28 09:43:59;;;;;;;3.53;0.77;;;27.20;40.10;;;;;;4909455;28;45495;-84
2022/06/28 09:46:26;;;;;;;4.13;0.80;;;27.10;39.90;;;;;;4880069;28;45196;-84
2022/06/28 09:48:57;;;;;;;1.00;0.68;;;27.20;40.00;;;;;;4894812;28;47072;-84
2022/06/28 09:51:23;;;;;;;3.33;0.70;;;27.20;40.00;;;;;;4912263;28;45411;-83
2022/06/28 09:53:51;;;;;;;0.90;0.60;;;27.20;40.00;;;;;;4912935;28;45116;-84
2022/06/28 09:56:17;;;;;;;4.10;0.90;;;27.20;39.70;;;;;;4906096;28;45017;-84
2022/06/28 09:58:43;;;;;;;1.05;0.80;;;27.20;39.70;;;;;;4889350;28;45487;-83
2022/06/28 10:01:08;;;;;;;0.80;0.60;;;27.20;39.70;;;;;;4890037;28;45245;-85
2022/06/28 10:03:34;;;;;;;0.95;0.70;;;27.20;39.90;;;;;;4898103;28;44720;-85
2022/06/28 10:06:01;;;;;;;2.05;0.90;;;27.30;39.70;;;;;;4901743;28;45506;-84
2022/06/28 10:08:27;;;;;;;0.70;0.65;;;27.20;39.80;;;;;;4895464;28;45324;-84
2022/06/28 10:10:52;;;;;;;1.00;0.50;;;27.30;39.90;;;;;;4914847;28;45090;-84
2022/06/28 10:16:08;;;;;;;0.73;0.70;;;27.30;40.60;;;;;;4922862;28;44911;-85
2022/06/28 10:18:37;;;;;;;2.03;0.85;;;27.40;40.00;;;;;;4921398;28;45427;-86
2022/06/28 10:21:03;;;;;;;1.50;0.80;;;27.40;40.00;;;;;;4892643;28;45558;-87
2022/06/28 10:23:36;;;;;;;2.35;0.95;;;27.40;40.10;;;;;;4896505;28;45174;-86
2022/06/28 10:26:09;;;;;;;2.25;0.80;;;27.50;40.00;;;;;;4889502;28;45262;-85
2022/06/28 10:28:44;;;;;;;;;;;27.50;39.90;;;;;;4916105;28;47542;-86
2022/06/28 10:31:24;;;;;;;1.80;0.80;;;27.50;39.90;;;;;;4907321;28;44753;-87
2022/06/28 10:34:01;;;;;;;1.35;0.70;;;27.50;40.00;;;;;;4931258;28;45329;-86
2022/06/28 10:36:43;;;;;;;0.88;0.88;;;27.50;40.00;;;;;;4915517;28;45263;-85
2022/06/28 10:39:09;;;;;;;3.13;1.00;;;27.50;39.80;;;;;;4924999;28;45159;-86
2022/06/28 10:41:46;;;;;;;1.27;0.60;;;27.50;40.10;;;;;;4929377;28;45677;-86
2022/06/28 10:44:18;;;;;;;2.58;0.95;;;27.50;39.80;;;;;;4928521;28;45582;-86
2022/06/28 10:47:06;;;;;;;1.13;0.63;;;27.50;40.00;;;;;;4913115;28;44678;-86
2022/06/28 10:49:50;;;;;;;0.82;0.65;;;27.50;39.80;;;;;;4916038;28;46939;-84
2022/06/28 10:52:16;;;;;;;2.10;0.77;;;27.50;39.80;;;;;;4909706;28;45369;-85
2022/06/28 10:55:08;;;;;;;2.15;0.88;;;27.60;40.10;;;;;;4912104;28;45468;-86
2022/06/28 10:57:39;;;;;;;2.45;1.05;;;27.60;39.90;;;;;;4925368;28;44964;-83
2022/06/28 11:00:07;;;;;;;6.13;0.98;;;27.60;39.90;;;;;;4912061;28;47880;-81
2022/06/28 11:02:47;;;;;;;2.65;0.80;;;27.60;40.00;;;;;;4893877;28;44673;-82
2022/06/28 11:05:12;;;;;;;2.38;0.80;;;27.60;39.80;;;;;;4882321;28;45276;-83
2022/06/28 11:07:38;;;;;;;4.15;1.00;;;27.60;40.10;;;;;;4898080;28;44703;-83
2022/06/28 11:10:14;;;;;;;1.42;0.90;;;27.60;40.00;;;;;;4893699;28;47085;-82
2022/06/28 11:12:41;;;;;;;3.25;0.80;;;27.60;40.00;;;;;;4878702;28;45386;-84
2022/06/28 11:15:08;;;;;;;0.75;0.75;;;27.70;39.90;;;;;;4926962;28;44674;-84
2022/06/28 11:17:40;;;;;;;7.30;1.48;;;27.70;39.80;;;;;;4909870;28;45244;-84
2022/06/28 11:20:14;;;;;;;2.07;0.97;;;27.70;39.60;;;;;;4926946;28;47100;-83
2022/06/28 11:22:50;;;;;;;2.03;0.80;;;27.80;39.60;;;;;;4910655;28;44997;-83
2022/06/28 11:25:16;;;;;;;1.55;0.90;;;27.80;39.20;;;;;;4879025;28;44759;-81
2022/06/28 11:27:52;;;;;;;2.88;1.13;;;27.90;39.40;;;;;;4896031;28;44746;-82
2022/06/28 11:30:18;;;;;;;1.88;0.65;;;27.90;38.90;;;;;;4905052;28;47281;-84
2022/06/28 11:32:45;;;;;;;3.33;0.90;;;27.90;39.20;;;;;;4895539;28;44993;-82
2022/06/28 11:35:12;;;;;;;2.20;0.90;;;27.90;38.80;;;;;;4909176;28;44683;-82
2022/06/28 11:37:49;;;;;;;1.92;0.95;;;28.00;38.80;;;;;;4897340;28;45588;-83
2022/06/28 11:40:15;;;;;;;1.95;1.00;;;28.00;38.10;;;;;;4930203;28;45204;-83
2022/06/28 11:42:44;;;;;;;1.60;0.93;;;28.00;38.30;;;;;;4908139;28;44668;-81
2022/06/28 11:45:14;;;;;;;1.77;0.90;;;28.00;38.00;;;;;;4924047;28;45592;-82
2022/06/28 11:47:41;;;;;;;1.42;0.88;;;28.00;37.80;;;;;;4911486;28;45364;-83
2022/06/28 11:50:09;;;;;;;0.90;0.90;;;28.00;37.70;;;;;;4918346;28;47061;-83
2022/06/28 11:52:44;;;;;;;1.88;0.90;;;28.00;37.70;;;;;;4893872;28;44684;-82
2022/06/28 11:55:10;;;;;;;2.90;0.80;;;28.10;37.30;;;;;;4914348;28;44651;-84
2022/06/28 11:57:36;;;;;;;1.10;0.70;;;28.10;37.10;;;;;;4929962;28;44730;-83
2022/06/28 12:00:03;;;;;;;1.75;0.85;;;28.10;37.00;;;;;;4916056;28;46636;-81
2022/06/28 12:02:36;;;;;;;1.15;0.70;;;28.10;36.90;;;;;;4908304;28;45245;-83
2022/06/28 12:05:03;;;;;;;2.00;0.63;;;28.10;36.80;;;;;;4908113;28;45085;-83
2022/06/28 12:07:36;;;;;;;3.08;0.82;;;28.10;37.10;;;;;;4897341;28;45193;-84
2022/06/28 12:10:02;;;;;;;6.53;0.80;;;28.10;36.90;;;;;;4926898;28;45225;-84
2022/06/28 12:12:27;;;;;;;0.73;0.60;;;28.20;37.20;;;;;;4895229;28;44719;-82
2022/06/28 12:14:57;;;;;;;0.60;0.60;;;28.20;37.60;;;;;;4890596;28;45222;-84
2022/06/28 12:17:22;;;;;;;1.75;0.80;;;28.20;36.70;;;;;;4911217;28;45534;-82
2022/06/28 12:19:48;;;;;;;2.55;0.65;;;28.20;37.00;;;;;;4896826;28;47769;-83
2022/06/28 12:22:23;;;;;;;1.23;0.52;;;28.20;37.10;;;;;;4907886;28;44641;-84
2022/06/28 12:24:54;;;;;;;2.17;1.02;;;28.30;37.10;;;;;;4925582;28;45196;-82
2022/06/28 12:27:31;;;;;;;1.17;0.50;;;28.30;37.10;;;;;;4896981;28;44737;-85
2022/06/28 12:29:57;;;;;;;1.02;0.50;;;28.30;36.90;;;;;;4880714;28;47233;-83
2022/06/28 12:32:23;;;;;;;1.33;0.90;;;28.40;37.00;;;;;;4907145;28;45268;-84
2022/06/28 12:34:56;;;;;;;0.63;0.50;;;28.40;37.00;;;;;;4903597;28;45357;-83
2022/06/28 12:37:22;;;;;;;0.70;0.70;;;28.50;37.00;;;;;;4890887;28;44751;-85
2022/06/28 12:39:47;;;;;;;2.17;0.70;;;28.50;37.80;;;;;;4867661;28;47160;-84
2022/06/28 12:42:13;;;;;;;1.60;0.88;;;28.50;37.10;;;;;;4894376;28;45179;-85
2022/06/28 12:44:39;;;;;;;0.57;0.57;;;28.50;37.80;;;;;;4896767;28;45390;-85
2022/06/28 12:47:05;;;;;;;2.17;0.80;;;28.60;37.00;;;;;;4892077;28;44774;-85
2022/06/28 12:49:31;;;;;;;1.42;0.50;;;28.60;36.90;;;;;;4893087;28;46964;-85
2022/06/28 12:51:56;;;;;;;2.90;0.63;;;28.60;36.80;;;;;;4911728;28;45562;-83
2022/06/28 12:54:22;;;;;;;1.58;0.80;;;28.60;36.60;;;;;;4898714;28;44732;-84
2022/06/28 12:56:47;;;;;;;2.33;0.60;;;28.60;36.60;;;;;;4911338;28;44855;-85
2022/06/28 12:59:13;;;;;;;1.30;0.82;;;28.60;36.60;;;;;;4903209;28;45271;-88
2022/06/28 13:01:39;;;;;;;1.00;0.70;;;28.60;36.50;;;;;;4918094;28;44734;-86
2022/06/28 13:04:05;;;;;;;0.80;0.80;;;28.60;36.40;;;;;;4918042;28;45404;-86
2022/06/28 13:06:30;;;;;;;1.75;0.60;;;28.70;36.50;;;;;;4915125;28;45739;-87
2022/06/28 13:08:56;;;;;;;4.57;0.80;;;28.70;37.20;;;;;;4887677;28;45526;-86
2022/06/28 13:11:22;;;;;;;1.98;0.85;;;28.70;36.50;;;;;;4905741;28;44947;-86
2022/06/28 13:13:51;;;;;;;1.20;0.60;;;28.80;36.70;;;;;;4904158;28;44963;-86
2022/06/28 13:16:17;;;;;;;1.08;0.70;;;28.80;36.50;;;;;;4903818;28;44919;-86
2022/06/28 13:18:43;;;;;;;1.58;0.80;;;28.80;36.60;;;;;;4918735;28;45161;-85
2022/06/28 13:21:09;;;;;;;1.20;0.80;;;28.80;36.60;;;;;;4908966;28;45298;-86
2022/06/28 13:23:35;;;;;;;1.02;0.70;;;28.80;36.60;;;;;;4914674;28;45227;-87
2022/06/28 13:26:01;;;;;;;1.02;0.75;;;28.80;36.60;;;;;;4898507;28;45193;-88
2022/06/28 13:28:30;;;;;;;3.22;0.75;;;28.90;36.70;;;;;;4916361;28;47062;-86
2022/06/28 13:30:55;;;;;;;1.20;0.80;;;28.90;37.40;;;;;;4919806;28;44786;-86
2022/06/28 13:33:21;;;;;;;1.27;0.80;;;28.90;36.80;;;;;;4904812;28;45621;-86
2022/06/28 13:35:48;;;;;;;1.20;0.80;;;28.90;37.50;;;;;;4904329;28;45572;-86
2022/06/28 13:38:14;;;;;;;1.65;0.70;;;28.90;36.90;;;;;;4898420;28;46620;-87
2022/06/28 13:40:39;;;;;;;0.85;0.77;;;29.00;37.00;;;;;;4915400;28;45256;-87
2022/06/28 13:45:50;;;;;;;0.90;0.80;;;29.00;37.00;;;;;;4919161;28;45256;-86
2022/06/28 13:48:15;;;;;;;0.77;0.70;;;29.00;37.20;;;;;;4899250;28;45339;-87
2022/06/28 13:50:41;;;;;;;0.60;0.60;;;29.10;37.20;;;;;;4914741;28;45629;-88
2022/06/28 13:53:07;;;;;;;1.05;0.90;;;29.10;37.10;;;;;;4923570;28;45241;-87
2022/06/28 13:55:32;;;;;;;1.20;1.00;;;29.10;37.70;;;;;;4915155;28;44875;-86
2022/06/28 13:57:58;;;;;;;0.88;0.60;;;29.10;37.10;;;;;;4915065;28;47187;-86
2022/06/28 14:00:24;;;;;;;1.63;0.73;;;29.20;37.10;;;;;;4916920;28;44655;-86
2022/06/28 14:02:49;;;;;;;2.22;0.80;;;29.20;37.10;;;;;;4916722;28;45365;-86
2022/06/28 14:05:15;;;;;;;1.42;0.73;;;29.20;37.10;;;;;;4924982;28;45563;-86
2022/06/28 14:07:43;;;;;;;3.22;0.90;;;29.20;37.20;;;;;;4918699;28;47277;-86
2022/06/28 14:10:10;;;;;;;0.95;0.80;;;29.20;37.10;;;;;;4917385;28;45545;-86
2022/06/28 14:12:36;;;;;;;2.08;0.75;;;29.30;37.00;;;;;;4906350;28;44792;-88
2022/06/28 14:15:02;;;;;;;1.08;0.70;;;29.20;36.90;;;;;;4905356;28;44985;-87
2022/06/28 14:17:28;;;;;;;2.65;0.95;;;29.30;36.80;;;;;;4927810;28;47161;-86
2022/06/28 14:19:53;;;;;;;1.55;0.82;;;29.30;37.50;;;;;;4911278;28;45178;-86
2022/06/28 14:22:19;;;;;;;2.88;0.90;;;29.30;36.90;;;;;;4920525;28;45180;-86
2022/06/28 14:24:45;;;;;;;1.63;0.93;;;29.40;36.90;;;;;;4921020;28;44694;-88
2022/06/28 14:27:10;;;;;;;1.27;1.08;;;29.40;36.90;;;;;;4937210;28;45410;-87
2022/06/28 14:29:36;;;;;;;1.25;0.77;;;29.40;36.90;;;;;;4925697;28;45262;-86
2022/06/28 14:32:02;;;;;;;2.17;0.80;;;29.40;36.80;;;;;;4907352;28;45647;-86
2022/06/28 14:34:28;;;;;;;1.50;1.27;;;29.40;36.80;;;;;;4925276;28;45262;-88
2022/06/28 14:36:54;;;;;;;1.55;0.88;;;29.40;36.70;;;;;;4917232;28;46871;-86
2022/06/28 14:39:20;;;;;;;2.15;0.90;;;29.30;36.70;;;;;;4920395;28;45221;-87
2022/06/28 14:41:48;;;;;;;2.83;1.35;;;29.40;36.80;;;;;;4884891;28;44735;-86
2022/06/28 14:44:14;;;;;;;0.70;0.70;;;29.40;36.80;;;;;;4926248;28;44723;-87
2022/06/28 14:46:40;;;;;;;2.17;0.93;;;29.40;36.80;;;;;;4917551;28;46938;-85
2022/06/28 14:49:05;;;;;;;0.77;0.73;;;29.40;36.80;;;;;;4901264;28;45149;-86
2022/06/28 14:51:31;;;;;;;0.80;0.80;;;29.50;36.80;;;;;;4916280;28;44940;-87
2022/06/28 14:53:56;;;;;;;3.00;0.93;;;29.50;36.70;;;;;;4918657;28;45267;-86
2022/06/28 14:56:22;;;;;;;1.00;0.85;;;29.50;36.60;;;;;;4938358;28;47101;-86
2022/06/28 14:58:48;;;;;;;2.22;1.02;;;29.50;36.60;;;;;;4900163;28;45265;-86
2022/06/28 15:01:14;;;;;;;2.40;1.00;;;29.50;36.70;;;;;;4904071;28;45190;-86
2022/06/28 15:03:39;;;;;;;2.17;1.00;;;29.50;36.70;;;;;;4900392;28;45286;-86
2022/06/28 15:06:05;;;;;;;1.80;0.90;;;29.50;36.70;;;;;;4901536;28;45297;-86
2022/06/28 15:08:30;;;;;;;1.10;1.00;;;29.50;36.70;;;;;;4914877;28;45007;-86
2022/06/28 15:10:56;;;;;;;1.05;0.80;;;29.50;36.70;;;;;;4913913;28;45101;-87
2022/06/28 15:13:22;;;;;;;2.13;1.13;;;29.50;36.70;;;;;;4911781;28;45536;-87
2022/06/28 15:15:49;;;;;;;2.45;0.90;;;29.60;36.80;;;;;;4897957;28;45379;-90
2022/06/28 15:18:15;;;;;;;1.13;0.98;;;29.60;36.80;;;;;;4899438;28;44794;-86
2022/06/28 15:20:41;;;;;;;2.05;1.08;;;29.50;36.80;;;;;;4895637;28;45277;-87
2022/06/28 15:31:34;;;;;;;1.15;0.90;;;29.50;36.70;;;;;;4906363;28;45225;-87
2022/06/28 15:33:59;;;;;;;1.65;1.15;;;29.50;36.70;;;;;;4914401;28;44844;-86
2022/06/28 15:36:25;;;;;;;1.98;0.90;;;29.60;36.70;;;;;;4905738;28;45371;-86
2022/06/28 15:38:51;;;;;;;2.50;1.10;;;29.60;36.60;;;;;;4919381;28;45095;-88
2022/06/28 15:41:17;;;;;;;4.72;0.90;;;29.60;36.70;;;;;;4925356;28;44799;-88
2022/06/28 15:43:42;;;;;;;3.50;0.80;;;29.60;36.80;;;;;;4906505;28;45166;-87
2022/06/28 15:46:08;;;;;;;0.93;0.70;;;29.70;36.80;;;;;;4899982;28;46921;-87
2022/06/28 15:48:34;;;;;;;0.80;0.77;;;29.70;36.70;;;;;;4930576;28;45148;-87
2022/06/28 15:51:00;;;;;;;1.95;0.98;;;29.70;36.80;;;;;;4907130;28;45026;-88
2022/06/28 15:53:25;;;;;;;0.85;0.80;;;29.70;36.90;;;;;;4894445;28;44700;-87
2022/06/28 15:55:52;;;;;;;0.90;0.90;;;29.70;37.50;;;;;;4936949;28;45768;-88
2022/06/28 15:58:17;;;;;;;1.27;0.77;;;29.70;36.90;;;;;;4917719;28;45594;-88
2022/06/28 16:00:43;;;;;;;1.50;0.82;;;29.80;36.90;;;;;;4940024;28;45177;-87
2022/06/28 16:03:09;;;;;;;1.85;0.90;;;29.80;37.00;;;;;;4901953;28;45299;-90